sensor_id;sensor_type;location;lat;lon;timestamp;temperature;humidity
70762;DHT22;58360;0.000;0.000;2023-04-23T00:01:16;9.80;96.40
70762;DHT22;58360;0.000;0.000;2023-04-23T00:03:43;9.90;96.20
70762;DHT22;58360;0.000;0.000;2023-04-23T00:06:09;10.00;96.10
70762;DHT22;58360;0.000;0.000;2023-04-23T00:08:40;9.90;96.30
70762;DHT22;58360;0.000;0.000;2023-04-23T00:11:06;9.90;96.30
70762;DHT22;58360;0.000;0.000;2023-04-23T00:13:32;9.80;96.40
70762;DHT22;58360;0.000;0.000;2023-04-23T00:15:59;10.00;96.10
70762;DHT22;58360;0.000;0.000;2023-04-23T00:18:24;10.10;96.00
70762;DHT22;58360;0.000;0.000;2023-04-23T00:20:51;10.00;96.10
70762;DHT22;58360;0.000;0.000;2023-04-23T00:23:16;9.90;96.20
70762;DHT22;58360;0.000;0.000;2023-04-23T00:25:42;10.00;96.20
70762;DHT22;58360;0.000;0.000;2023-04-23T00:28:08;10.20;95.90
70762;DHT22;58360;0.000;0.000;2023-04-23T00:30:34;10.10;95.90
70762;DHT22;58360;0.000;0.000;2023-04-23T00:32:59;10.10;95.80
70762;DHT22;58360;0.000;0.000;2023-04-23T00:35:28;10.10;96.00
70762;DHT22;58360;0.000;0.000;2023-04-23T00:37:54;10.10;95.90
70762;DHT22;58360;0.000;0.000;2023-04-23T00:40:20;10.30;95.70
70762;DHT22;58360;0.000;0.000;2023-04-23T00:42:45;10.30;95.60
70762;DHT22;58360;0.000;0.000;2023-04-23T00:45:13;10.30;95.60
70762;DHT22;58360;0.000;0.000;2023-04-23T00:47:39;10.30;95.70
70762;DHT22;58360;0.000;0.000;2023-04-23T00:50:06;10.30;95.80
70762;DHT22;58360;0.000;0.000;2023-04-23T00:52:32;10.40;95.40
70762;DHT22;58360;0.000;0.000;2023-04-23T00:54:59;10.40;95.50
70762;DHT22;58360;0.000;0.000;2023-04-23T00:57:25;10.30;95.70
70762;DHT22;58360;0.000;0.000;2023-04-23T00:59:51;10.30;95.70
70762;DHT22;58360;0.000;0.000;2023-04-23T01:02:19;10.30;95.70
70762;DHT22;58360;0.000;0.000;2023-04-23T01:04:47;10.30;95.70
70762;DHT22;58360;0.000;0.000;2023-04-23T01:07:15;10.50;95.30
70762;DHT22;58360;0.000;0.000;2023-04-23T01:09:42;10.40;95.30
70762;DHT22;58360;0.000;0.000;2023-04-23T01:12:08;10.50;95.40
70762;DHT22;58360;0.000;0.000;2023-04-23T01:14:36;10.70;94.70
70762;DHT22;58360;0.000;0.000;2023-04-23T01:17:02;10.50;95.00
70762;DHT22;58360;0.000;0.000;2023-04-23T01:19:27;10.40;95.20
70762;DHT22;58360;0.000;0.000;2023-04-23T01:21:53;10.40;95.30
70762;DHT22;58360;0.000;0.000;2023-04-23T01:24:20;10.40;95.30
70762;DHT22;58360;0.000;0.000;2023-04-23T01:26:46;10.40;95.30
70762;DHT22;58360;0.000;0.000;2023-04-23T01:29:12;10.40;95.20
70762;DHT22;58360;0.000;0.000;2023-04-23T01:31:38;10.30;95.40
70762;DHT22;58360;0.000;0.000;2023-04-23T01:34:04;10.30;95.10
70762;DHT22;58360;0.000;0.000;2023-04-23T01:36:32;10.30;95.20
70762;DHT22;58360;0.000;0.000;2023-04-23T01:38:57;10.30;95.40
70762;DHT22;58360;0.000;0.000;2023-04-23T01:41:23;10.30;95.30
70762;DHT22;58360;0.000;0.000;2023-04-23T01:43:49;10.30;95.40
70762;DHT22;58360;0.000;0.000;2023-04-23T01:46:15;10.30;95.60
70762;DHT22;58360;0.000;0.000;2023-04-23T01:48:41;10.30;95.50
70762;DHT22;58360;0.000;0.000;2023-04-23T01:51:06;10.40;95.30
70762;DHT22;58360;0.000;0.000;2023-04-23T01:53:33;10.40;95.20
70762;DHT22;58360;0.000;0.000;2023-04-23T01:55:59;10.40;95.20
70762;DHT22;58360;0.000;0.000;2023-04-23T01:58:25;10.40;95.30
70762;DHT22;58360;0.000;0.000;2023-04-23T02:00:51;10.40;95.30
70762;DHT22;58360;0.000;0.000;2023-04-23T02:03:17;10.40;95.40
70762;DHT22;58360;0.000;0.000;2023-04-23T02:05:43;10.40;95.50
70762;DHT22;58360;0.000;0.000;2023-04-23T02:08:09;10.40;95.50
70762;DHT22;58360;0.000;0.000;2023-04-23T02:10:35;10.40;95.60
70762;DHT22;58360;0.000;0.000;2023-04-23T02:13:01;10.50;95.30
70762;DHT22;58360;0.000;0.000;2023-04-23T02:15:27;10.50;95.20
70762;DHT22;58360;0.000;0.000;2023-04-23T02:17:53;10.50;95.20
70762;DHT22;58360;0.000;0.000;2023-04-23T02:20:19;10.50;95.20
70762;DHT22;58360;0.000;0.000;2023-04-23T02:22:47;10.50;95.40
70762;DHT22;58360;0.000;0.000;2023-04-23T02:25:13;10.50;95.40
70762;DHT22;58360;0.000;0.000;2023-04-23T02:27:40;10.60;95.50
70762;DHT22;58360;0.000;0.000;2023-04-23T02:30:07;10.60;95.70
70762;DHT22;58360;0.000;0.000;2023-04-23T02:32:34;10.50;95.70
70762;DHT22;58360;0.000;0.000;2023-04-23T02:35:00;10.60;95.70
70762;DHT22;58360;0.000;0.000;2023-04-23T02:37:26;10.50;95.60
70762;DHT22;58360;0.000;0.000;2023-04-23T02:39:52;10.60;95.80
70762;DHT22;58360;0.000;0.000;2023-04-23T02:42:18;10.50;95.70
70762;DHT22;58360;0.000;0.000;2023-04-23T02:44:43;10.40;95.90
70762;DHT22;58360;0.000;0.000;2023-04-23T02:47:09;10.30;96.00
70762;DHT22;58360;0.000;0.000;2023-04-23T02:49:35;10.30;96.20
70762;DHT22;58360;0.000;0.000;2023-04-23T02:52:01;10.20;96.20
70762;DHT22;58360;0.000;0.000;2023-04-23T02:54:27;10.20;96.20
70762;DHT22;58360;0.000;0.000;2023-04-23T02:56:52;10.10;96.40
70762;DHT22;58360;0.000;0.000;2023-04-23T02:59:18;10.10;96.50
70762;DHT22;58360;0.000;0.000;2023-04-23T03:01:44;10.00;96.60
70762;DHT22;58360;0.000;0.000;2023-04-23T03:04:09;9.90;96.70
70762;DHT22;58360;0.000;0.000;2023-04-23T03:06:36;9.80;96.90
70762;DHT22;58360;0.000;0.000;2023-04-23T03:09:02;9.80;97.00
70762;DHT22;58360;0.000;0.000;2023-04-23T03:11:28;9.80;97.00
70762;DHT22;58360;0.000;0.000;2023-04-23T03:13:53;9.70;97.10
70762;DHT22;58360;0.000;0.000;2023-04-23T03:16:19;9.60;97.20
70762;DHT22;58360;0.000;0.000;2023-04-23T03:18:45;9.60;97.30
70762;DHT22;58360;0.000;0.000;2023-04-23T03:21:10;9.60;97.30
70762;DHT22;58360;0.000;0.000;2023-04-23T03:23:36;9.70;97.10
70762;DHT22;58360;0.000;0.000;2023-04-23T03:26:02;9.70;96.90
70762;DHT22;58360;0.000;0.000;2023-04-23T03:28:30;9.70;96.90
70762;DHT22;58360;0.000;0.000;2023-04-23T03:30:56;9.70;97.00
70762;DHT22;58360;0.000;0.000;2023-04-23T03:33:21;9.60;96.90
70762;DHT22;58360;0.000;0.000;2023-04-23T03:35:47;9.60;97.00
70762;DHT22;58360;0.000;0.000;2023-04-23T03:38:13;9.50;97.10
70762;DHT22;58360;0.000;0.000;2023-04-23T03:40:38;9.50;97.20
70762;DHT22;58360;0.000;0.000;2023-04-23T03:43:04;9.50;97.10
70762;DHT22;58360;0.000;0.000;2023-04-23T03:45:30;9.50;97.10
70762;DHT22;58360;0.000;0.000;2023-04-23T03:47:55;9.60;97.10
70762;DHT22;58360;0.000;0.000;2023-04-23T03:50:21;9.60;97.00
70762;DHT22;58360;0.000;0.000;2023-04-23T03:52:47;9.50;97.10
70762;DHT22;58360;0.000;0.000;2023-04-23T03:55:12;9.50;97.20
70762;DHT22;58360;0.000;0.000;2023-04-23T03:57:38;9.40;97.10
70762;DHT22;58360;0.000;0.000;2023-04-23T04:00:05;9.40;97.20
70762;DHT22;58360;0.000;0.000;2023-04-23T04:02:37;9.40;97.10
70762;DHT22;58360;0.000;0.000;2023-04-23T04:05:04;9.40;97.20
70762;DHT22;58360;0.000;0.000;2023-04-23T04:07:30;9.30;97.20
70762;DHT22;58360;0.000;0.000;2023-04-23T04:09:56;9.30;97.30
70762;DHT22;58360;0.000;0.000;2023-04-23T04:12:21;9.20;97.40
70762;DHT22;58360;0.000;0.000;2023-04-23T04:14:47;9.20;97.40
70762;DHT22;58360;0.000;0.000;2023-04-23T04:17:13;9.20;97.40
70762;DHT22;58360;0.000;0.000;2023-04-23T04:19:41;9.20;97.40
70762;DHT22;58360;0.000;0.000;2023-04-23T04:22:07;9.10;97.40
70762;DHT22;58360;0.000;0.000;2023-04-23T04:24:33;9.10;97.40
70762;DHT22;58360;0.000;0.000;2023-04-23T04:27:00;9.10;97.40
70762;DHT22;58360;0.000;0.000;2023-04-23T04:29:26;9.10;97.50
70762;DHT22;58360;0.000;0.000;2023-04-23T04:31:55;9.10;97.40
70762;DHT22;58360;0.000;0.000;2023-04-23T04:34:21;9.10;97.40
70762;DHT22;58360;0.000;0.000;2023-04-23T04:36:47;9.20;97.40
70762;DHT22;58360;0.000;0.000;2023-04-23T04:39:13;9.20;97.60
70762;DHT22;58360;0.000;0.000;2023-04-23T04:41:39;9.20;97.40
70762;DHT22;58360;0.000;0.000;2023-04-23T04:44:06;9.20;97.40
70762;DHT22;58360;0.000;0.000;2023-04-23T04:46:35;9.30;97.30
70762;DHT22;58360;0.000;0.000;2023-04-23T04:49:09;9.30;97.20
70762;DHT22;58360;0.000;0.000;2023-04-23T04:51:39;9.20;97.20
70762;DHT22;58360;0.000;0.000;2023-04-23T04:54:06;9.20;97.30
70762;DHT22;58360;0.000;0.000;2023-04-23T04:56:33;9.20;97.30
70762;DHT22;58360;0.000;0.000;2023-04-23T04:58:59;9.20;97.40
70762;DHT22;58360;0.000;0.000;2023-04-23T05:01:26;9.20;97.30
70762;DHT22;58360;0.000;0.000;2023-04-23T05:03:53;9.20;97.30
70762;DHT22;58360;0.000;0.000;2023-04-23T05:06:19;9.20;97.30
70762;DHT22;58360;0.000;0.000;2023-04-23T05:08:45;9.20;97.40
70762;DHT22;58360;0.000;0.000;2023-04-23T05:11:19;9.30;97.30
70762;DHT22;58360;0.000;0.000;2023-04-23T05:13:46;9.30;97.20
70762;DHT22;58360;0.000;0.000;2023-04-23T05:16:12;9.40;97.00
70762;DHT22;58360;0.000;0.000;2023-04-23T05:18:38;9.40;96.90
70762;DHT22;58360;0.000;0.000;2023-04-23T05:21:05;9.40;96.90
70762;DHT22;58360;0.000;0.000;2023-04-23T05:23:31;9.60;96.90
70762;DHT22;58360;0.000;0.000;2023-04-23T05:25:57;9.80;96.30
70762;DHT22;58360;0.000;0.000;2023-04-23T05:28:23;9.70;96.50
70762;DHT22;58360;0.000;0.000;2023-04-23T05:30:50;9.70;96.50
70762;DHT22;58360;0.000;0.000;2023-04-23T05:33:15;9.70;96.60
70762;DHT22;58360;0.000;0.000;2023-04-23T05:35:41;9.80;96.40
70762;DHT22;58360;0.000;0.000;2023-04-23T05:38:07;9.80;96.40
70762;DHT22;58360;0.000;0.000;2023-04-23T05:40:33;9.80;96.40
70762;DHT22;58360;0.000;0.000;2023-04-23T05:42:59;9.80;96.40
70762;DHT22;58360;0.000;0.000;2023-04-23T05:45:24;9.80;96.40
70762;DHT22;58360;0.000;0.000;2023-04-23T05:47:50;9.90;96.30
70762;DHT22;58360;0.000;0.000;2023-04-23T05:50:17;9.90;96.20
70762;DHT22;58360;0.000;0.000;2023-04-23T05:52:43;10.10;96.20
70762;DHT22;58360;0.000;0.000;2023-04-23T05:55:09;10.10;96.20
70762;DHT22;58360;0.000;0.000;2023-04-23T05:57:38;10.20;96.00
70762;DHT22;58360;0.000;0.000;2023-04-23T06:00:05;10.40;95.70
70762;DHT22;58360;0.000;0.000;2023-04-23T06:02:30;10.50;95.60
70762;DHT22;58360;0.000;0.000;2023-04-23T06:04:58;10.80;95.20
70762;DHT22;58360;0.000;0.000;2023-04-23T06:07:24;11.20;94.60
70762;DHT22;58360;0.000;0.000;2023-04-23T06:09:49;11.80;93.70
70762;DHT22;58360;0.000;0.000;2023-04-23T06:12:16;12.30;92.50
70762;DHT22;58360;0.000;0.000;2023-04-23T06:14:42;12.90;91.60
70762;DHT22;58360;0.000;0.000;2023-04-23T06:17:07;13.40;91.00
70762;DHT22;58360;0.000;0.000;2023-04-23T06:19:36;14.00;90.00
70762;DHT22;58360;0.000;0.000;2023-04-23T06:22:01;14.30;88.20
70762;DHT22;58360;0.000;0.000;2023-04-23T06:24:27;14.70;86.90
70762;DHT22;58360;0.000;0.000;2023-04-23T06:26:53;14.80;86.10
70762;DHT22;58360;0.000;0.000;2023-04-23T06:29:18;15.00;85.90
70762;DHT22;58360;0.000;0.000;2023-04-23T06:31:44;15.60;83.20
70762;DHT22;58360;0.000;0.000;2023-04-23T06:34:10;16.00;81.90
70762;DHT22;58360;0.000;0.000;2023-04-23T06:36:35;16.20;81.70
70762;DHT22;58360;0.000;0.000;2023-04-23T06:39:01;16.50;81.20
70762;DHT22;58360;0.000;0.000;2023-04-23T06:41:27;16.80;79.50
70762;DHT22;58360;0.000;0.000;2023-04-23T06:43:53;16.80;79.10
70762;DHT22;58360;0.000;0.000;2023-04-23T06:46:18;17.20;77.30
70762;DHT22;58360;0.000;0.000;2023-04-23T06:48:44;17.90;76.30
70762;DHT22;58360;0.000;0.000;2023-04-23T06:51:10;18.40;73.30
70762;DHT22;58360;0.000;0.000;2023-04-23T06:53:36;18.20;73.20
70762;DHT22;58360;0.000;0.000;2023-04-23T06:56:02;18.50;73.50
70762;DHT22;58360;0.000;0.000;2023-04-23T06:58:27;18.80;72.10
70762;DHT22;58360;0.000;0.000;2023-04-23T07:00:57;18.80;72.30
70762;DHT22;58360;0.000;0.000;2023-04-23T07:03:27;19.30;71.70
70762;DHT22;58360;0.000;0.000;2023-04-23T07:05:53;19.60;69.90
70762;DHT22;58360;0.000;0.000;2023-04-23T07:08:19;19.60;68.90
70762;DHT22;58360;0.000;0.000;2023-04-23T07:10:47;19.50;69.10
70762;DHT22;58360;0.000;0.000;2023-04-23T07:13:13;19.60;69.20
70762;DHT22;58360;0.000;0.000;2023-04-23T07:15:39;20.40;67.70
70762;DHT22;58360;0.000;0.000;2023-04-23T07:18:06;20.00;67.60
70762;DHT22;58360;0.000;0.000;2023-04-23T07:20:31;19.60;68.70
70762;DHT22;58360;0.000;0.000;2023-04-23T07:22:58;20.30;67.80
70762;DHT22;58360;0.000;0.000;2023-04-23T07:25:24;20.80;66.60
70762;DHT22;58360;0.000;0.000;2023-04-23T07:27:54;21.10;65.30
70762;DHT22;58360;0.000;0.000;2023-04-23T07:30:22;20.60;66.30
70762;DHT22;58360;0.000;0.000;2023-04-23T07:32:48;21.40;64.90
70762;DHT22;58360;0.000;0.000;2023-04-23T07:35:14;22.20;62.20
70762;DHT22;58360;0.000;0.000;2023-04-23T07:37:40;22.50;61.00
70762;DHT22;58360;0.000;0.000;2023-04-23T07:40:06;22.00;61.60
70762;DHT22;58360;0.000;0.000;2023-04-23T07:42:32;22.10;62.30
70762;DHT22;58360;0.000;0.000;2023-04-23T07:44:58;21.90;61.90
70762;DHT22;58360;0.000;0.000;2023-04-23T07:47:24;22.80;59.30
70762;DHT22;58360;0.000;0.000;2023-04-23T07:49:50;22.80;59.60
70762;DHT22;58360;0.000;0.000;2023-04-23T07:52:16;23.50;57.90
70762;DHT22;58360;0.000;0.000;2023-04-23T07:54:42;22.40;60.10
70762;DHT22;58360;0.000;0.000;2023-04-23T07:57:08;21.40;61.50
70762;DHT22;58360;0.000;0.000;2023-04-23T07:59:37;21.20;62.90
70762;DHT22;58360;0.000;0.000;2023-04-23T08:02:04;21.70;63.30
70762;DHT22;58360;0.000;0.000;2023-04-23T08:04:30;22.20;61.10
70762;DHT22;58360;0.000;0.000;2023-04-23T08:06:55;23.70;58.10
70762;DHT22;58360;0.000;0.000;2023-04-23T08:09:21;23.80;56.90
70762;DHT22;58360;0.000;0.000;2023-04-23T08:11:47;24.30;55.00
70762;DHT22;58360;0.000;0.000;2023-04-23T08:14:13;24.30;54.80
70762;DHT22;58360;0.000;0.000;2023-04-23T08:16:39;24.20;54.70
70762;DHT22;58360;0.000;0.000;2023-04-23T08:19:04;24.40;55.00
70762;DHT22;58360;0.000;0.000;2023-04-23T08:21:31;23.20;56.40
70762;DHT22;58360;0.000;0.000;2023-04-23T08:23:57;22.40;57.50
70762;DHT22;58360;0.000;0.000;2023-04-23T08:26:23;21.90;59.30
70762;DHT22;58360;0.000;0.000;2023-04-23T08:28:48;21.70;58.40
70762;DHT22;58360;0.000;0.000;2023-04-23T08:31:14;21.80;59.60
70762;DHT22;58360;0.000;0.000;2023-04-23T08:33:40;21.20;61.10
70762;DHT22;58360;0.000;0.000;2023-04-23T08:36:06;21.60;60.10
70762;DHT22;58360;0.000;0.000;2023-04-23T08:38:32;22.00;59.60
70762;DHT22;58360;0.000;0.000;2023-04-23T08:40:58;22.30;58.80
70762;DHT22;58360;0.000;0.000;2023-04-23T08:43:32;23.00;56.20
70762;DHT22;58360;0.000;0.000;2023-04-23T08:46:02;23.30;56.60
70762;DHT22;58360;0.000;0.000;2023-04-23T08:48:32;24.70;53.30
70762;DHT22;58360;0.000;0.000;2023-04-23T08:51:01;25.10;50.80
70762;DHT22;58360;0.000;0.000;2023-04-23T08:53:27;24.80;51.40
70762;DHT22;58360;0.000;0.000;2023-04-23T08:55:56;24.90;51.30
70762;DHT22;58360;0.000;0.000;2023-04-23T08:58:22;24.60;51.30
70762;DHT22;58360;0.000;0.000;2023-04-23T09:00:48;24.50;51.70
70762;DHT22;58360;0.000;0.000;2023-04-23T09:03:18;23.40;53.10
70762;DHT22;58360;0.000;0.000;2023-04-23T09:05:45;23.20;54.60
70762;DHT22;58360;0.000;0.000;2023-04-23T09:08:11;22.70;55.70
70762;DHT22;58360;0.000;0.000;2023-04-23T09:10:39;21.90;57.40
70762;DHT22;58360;0.000;0.000;2023-04-23T09:13:06;21.20;59.00
70762;DHT22;58360;0.000;0.000;2023-04-23T09:15:31;21.00;59.90
70762;DHT22;58360;0.000;0.000;2023-04-23T09:17:58;21.90;58.80
70762;DHT22;58360;0.000;0.000;2023-04-23T09:20:25;22.60;57.20
70762;DHT22;58360;0.000;0.000;2023-04-23T09:22:51;22.60;55.90
70762;DHT22;58360;0.000;0.000;2023-04-23T09:25:21;22.30;57.00
70762;DHT22;58360;0.000;0.000;2023-04-23T09:27:50;21.70;58.40
70762;DHT22;58360;0.000;0.000;2023-04-23T09:30:16;21.50;58.90
70762;DHT22;58360;0.000;0.000;2023-04-23T09:32:43;21.70;58.80
70762;DHT22;58360;0.000;0.000;2023-04-23T09:35:13;21.60;58.10
70762;DHT22;58360;0.000;0.000;2023-04-23T09:37:47;21.00;59.10
70762;DHT22;58360;0.000;0.000;2023-04-23T09:40:15;21.80;58.00
70762;DHT22;58360;0.000;0.000;2023-04-23T09:42:49;22.30;55.20
70762;DHT22;58360;0.000;0.000;2023-04-23T09:45:17;22.80;54.20
70762;DHT22;58360;0.000;0.000;2023-04-23T09:47:56;21.80;57.20
70762;DHT22;58360;0.000;0.000;2023-04-23T09:50:38;21.70;58.40
70762;DHT22;58360;0.000;0.000;2023-04-23T09:53:06;21.80;56.90
70762;DHT22;58360;0.000;0.000;2023-04-23T09:55:43;22.00;56.10
70762;DHT22;58360;0.000;0.000;2023-04-23T09:58:14;21.90;56.60
70762;DHT22;58360;0.000;0.000;2023-04-23T10:00:41;20.80;60.00
70762;DHT22;58360;0.000;0.000;2023-04-23T10:03:07;20.00;61.70
70762;DHT22;58360;0.000;0.000;2023-04-23T10:05:38;20.00;63.40
70762;DHT22;58360;0.000;0.000;2023-04-23T10:08:05;21.00;60.30
70762;DHT22;58360;0.000;0.000;2023-04-23T10:10:32;21.50;58.30
70762;DHT22;58360;0.000;0.000;2023-04-23T10:12:58;21.10;58.30
70762;DHT22;58360;0.000;0.000;2023-04-23T10:15:25;21.00;59.50
70762;DHT22;58360;0.000;0.000;2023-04-23T10:17:52;21.20;58.30
70762;DHT22;58360;0.000;0.000;2023-04-23T10:20:23;20.90;59.40
70762;DHT22;58360;0.000;0.000;2023-04-23T10:22:52;20.10;60.90
70762;DHT22;58360;0.000;0.000;2023-04-23T10:25:19;19.60;62.60
70762;DHT22;58360;0.000;0.000;2023-04-23T10:27:48;19.70;62.20
70762;DHT22;58360;0.000;0.000;2023-04-23T10:30:14;19.80;62.60
70762;DHT22;58360;0.000;0.000;2023-04-23T10:32:40;19.60;62.70
70762;DHT22;58360;0.000;0.000;2023-04-23T10:35:07;20.20;61.20
70762;DHT22;58360;0.000;0.000;2023-04-23T10:37:34;20.20;61.40
70762;DHT22;58360;0.000;0.000;2023-04-23T10:40:06;20.50;60.40
70762;DHT22;58360;0.000;0.000;2023-04-23T10:42:34;20.20;61.80
70762;DHT22;58360;0.000;0.000;2023-04-23T10:44:59;20.10;61.00
70762;DHT22;58360;0.000;0.000;2023-04-23T10:47:25;20.30;60.30
70762;DHT22;58360;0.000;0.000;2023-04-23T10:49:51;20.30;60.30
70762;DHT22;58360;0.000;0.000;2023-04-23T10:52:17;20.00;61.80
70762;DHT22;58360;0.000;0.000;2023-04-23T10:54:48;19.60;61.70
70762;DHT22;58360;0.000;0.000;2023-04-23T10:57:14;19.30;62.40
70762;DHT22;58360;0.000;0.000;2023-04-23T10:59:50;18.90;65.40
70762;DHT22;58360;0.000;0.000;2023-04-23T11:02:16;18.70;67.80
70762;DHT22;58360;0.000;0.000;2023-04-23T11:04:52;18.70;66.50
70762;DHT22;58360;0.000;0.000;2023-04-23T11:07:18;19.00;66.00
70762;DHT22;58360;0.000;0.000;2023-04-23T11:09:48;19.30;64.60
70762;DHT22;58360;0.000;0.000;2023-04-23T11:14:50;20.30;62.10
70762;DHT22;58360;0.000;0.000;2023-04-23T11:22:42;19.30;64.20
70762;DHT22;58360;0.000;0.000;2023-04-23T11:25:09;19.50;62.80
70762;DHT22;58360;0.000;0.000;2023-04-23T11:27:42;19.40;63.20
70762;DHT22;58360;0.000;0.000;2023-04-23T11:30:21;19.10;62.60
70762;DHT22;58360;0.000;0.000;2023-04-23T11:32:49;18.80;64.20
70762;DHT22;58360;0.000;0.000;2023-04-23T11:35:19;18.90;64.30
70762;DHT22;58360;0.000;0.000;2023-04-23T11:37:46;18.90;64.00
70762;DHT22;58360;0.000;0.000;2023-04-23T11:40:17;18.70;64.10
70762;DHT22;58360;0.000;0.000;2023-04-23T11:42:53;18.70;64.60
70762;DHT22;58360;0.000;0.000;2023-04-23T11:45:21;18.80;63.70
70762;DHT22;58360;0.000;0.000;2023-04-23T11:47:49;18.80;63.50
70762;DHT22;58360;0.000;0.000;2023-04-23T11:50:22;18.60;63.60
70762;DHT22;58360;0.000;0.000;2023-04-23T11:52:48;18.60;63.50
70762;DHT22;58360;0.000;0.000;2023-04-23T11:55:14;18.90;62.00
70762;DHT22;58360;0.000;0.000;2023-04-23T11:57:45;18.90;61.60
70762;DHT22;58360;0.000;0.000;2023-04-23T12:00:19;18.90;62.50
70762;DHT22;58360;0.000;0.000;2023-04-23T12:03:04;19.30;60.60
70762;DHT22;58360;0.000;0.000;2023-04-23T12:05:35;19.30;61.10
70762;DHT22;58360;0.000;0.000;2023-04-23T12:10:51;20.00;59.30
70762;DHT22;58360;0.000;0.000;2023-04-23T12:13:39;20.30;58.20
70762;DHT22;58360;0.000;0.000;2023-04-23T12:16:05;20.80;56.10
70762;DHT22;58360;0.000;0.000;2023-04-23T12:18:32;21.20;55.30
70762;DHT22;58360;0.000;0.000;2023-04-23T12:21:11;20.70;55.70
70762;DHT22;58360;0.000;0.000;2023-04-23T12:23:41;21.10;54.40
70762;DHT22;58360;0.000;0.000;2023-04-23T12:26:13;20.50;56.30
70762;DHT22;58360;0.000;0.000;2023-04-23T12:28:55;20.20;57.10
70762;DHT22;58360;0.000;0.000;2023-04-23T12:31:27;20.00;58.60
70762;DHT22;58360;0.000;0.000;2023-04-23T12:34:03;20.10;57.50
70762;DHT22;58360;0.000;0.000;2023-04-23T12:36:30;19.70;57.60
70762;DHT22;58360;0.000;0.000;2023-04-23T12:41:55;18.30;66.80
70762;DHT22;58360;0.000;0.000;2023-04-23T12:44:22;18.10;70.40
70762;DHT22;58360;0.000;0.000;2023-04-23T12:46:52;18.10;69.10
70762;DHT22;58360;0.000;0.000;2023-04-23T12:49:18;18.20;66.20
70762;DHT22;58360;0.000;0.000;2023-04-23T12:51:44;17.90;71.40
70762;DHT22;58360;0.000;0.000;2023-04-23T12:54:10;17.80;70.20
70762;DHT22;58360;0.000;0.000;2023-04-23T12:56:36;17.50;73.30
70762;DHT22;58360;0.000;0.000;2023-04-23T12:59:02;17.10;76.20
70762;DHT22;58360;0.000;0.000;2023-04-23T13:01:30;16.90;79.00
70762;DHT22;58360;0.000;0.000;2023-04-23T13:03:55;16.80;80.70
70762;DHT22;58360;0.000;0.000;2023-04-23T13:06:21;16.60;82.20
70762;DHT22;58360;0.000;0.000;2023-04-23T13:08:47;16.20;84.00
70762;DHT22;58360;0.000;0.000;2023-04-23T13:11:12;16.10;84.80
70762;DHT22;58360;0.000;0.000;2023-04-23T13:13:38;15.90;86.20
70762;DHT22;58360;0.000;0.000;2023-04-23T13:16:04;15.60;88.20
70762;DHT22;58360;0.000;0.000;2023-04-23T13:18:29;15.50;88.70
70762;DHT22;58360;0.000;0.000;2023-04-23T13:20:55;15.40;89.90
70762;DHT22;58360;0.000;0.000;2023-04-23T13:23:21;15.20;89.60
70762;DHT22;58360;0.000;0.000;2023-04-23T13:25:47;15.10;90.50
70762;DHT22;58360;0.000;0.000;2023-04-23T13:28:13;14.90;90.80
70762;DHT22;58360;0.000;0.000;2023-04-23T13:30:39;15.10;90.40
70762;DHT22;58360;0.000;0.000;2023-04-23T13:33:04;15.00;90.40
70762;DHT22;58360;0.000;0.000;2023-04-23T13:35:30;15.10;90.60
70762;DHT22;58360;0.000;0.000;2023-04-23T13:37:57;15.00;90.70
70762;DHT22;58360;0.000;0.000;2023-04-23T13:40:22;15.00;90.60
70762;DHT22;58360;0.000;0.000;2023-04-23T13:42:48;14.90;91.30
70762;DHT22;58360;0.000;0.000;2023-04-23T13:45:15;14.80;91.20
70762;DHT22;58360;0.000;0.000;2023-04-23T13:47:41;14.80;90.70
70762;DHT22;58360;0.000;0.000;2023-04-23T13:50:07;14.80;91.10
70762;DHT22;58360;0.000;0.000;2023-04-23T13:52:35;14.90;90.80
70762;DHT22;58360;0.000;0.000;2023-04-23T13:55:01;14.80;90.60
70762;DHT22;58360;0.000;0.000;2023-04-23T13:57:28;14.90;90.60
70762;DHT22;58360;0.000;0.000;2023-04-23T13:59:54;14.90;90.60
70762;DHT22;58360;0.000;0.000;2023-04-23T14:02:20;14.70;90.30
70762;DHT22;58360;0.000;0.000;2023-04-23T14:04:46;14.60;90.60
70762;DHT22;58360;0.000;0.000;2023-04-23T14:07:12;14.50;91.20
70762;DHT22;58360;0.000;0.000;2023-04-23T14:09:38;14.50;91.30
70762;DHT22;58360;0.000;0.000;2023-04-23T14:12:03;14.50;91.20
70762;DHT22;58360;0.000;0.000;2023-04-23T14:14:29;14.60;90.70
70762;DHT22;58360;0.000;0.000;2023-04-23T14:16:55;14.60;90.80
70762;DHT22;58360;0.000;0.000;2023-04-23T14:19:21;14.60;91.00
70762;DHT22;58360;0.000;0.000;2023-04-23T14:21:46;14.50;91.20
70762;DHT22;58360;0.000;0.000;2023-04-23T14:24:22;14.50;91.40
70762;DHT22;58360;0.000;0.000;2023-04-23T14:26:51;14.60;91.40
70762;DHT22;58360;0.000;0.000;2023-04-23T14:29:29;14.40;91.90
70762;DHT22;58360;0.000;0.000;2023-04-23T14:31:55;14.10;91.80
70762;DHT22;58360;0.000;0.000;2023-04-23T14:34:20;14.30;92.10
70762;DHT22;58360;0.000;0.000;2023-04-23T14:36:46;14.30;91.80
70762;DHT22;58360;0.000;0.000;2023-04-23T14:39:14;14.30;92.20
70762;DHT22;58360;0.000;0.000;2023-04-23T14:41:39;14.20;92.50
70762;DHT22;58360;0.000;0.000;2023-04-23T14:44:06;14.30;92.40
70762;DHT22;58360;0.000;0.000;2023-04-23T14:46:31;14.40;92.30
70762;DHT22;58360;0.000;0.000;2023-04-23T14:48:57;14.40;92.00
70762;DHT22;58360;0.000;0.000;2023-04-23T14:51:23;14.50;91.80
70762;DHT22;58360;0.000;0.000;2023-04-23T14:53:50;14.60;91.60
70762;DHT22;58360;0.000;0.000;2023-04-23T14:56:15;14.50;91.90
70762;DHT22;58360;0.000;0.000;2023-04-23T14:58:41;14.60;91.60
70762;DHT22;58360;0.000;0.000;2023-04-23T15:01:07;14.60;92.00
70762;DHT22;58360;0.000;0.000;2023-04-23T15:03:34;14.70;91.80
70762;DHT22;58360;0.000;0.000;2023-04-23T15:05:59;15.00;91.50
70762;DHT22;58360;0.000;0.000;2023-04-23T15:08:25;15.10;90.70
70762;DHT22;58360;0.000;0.000;2023-04-23T15:10:51;15.10;90.80
70762;DHT22;58360;0.000;0.000;2023-04-23T15:13:51;15.20;90.80
70762;DHT22;58360;0.000;0.000;2023-04-23T15:18:50;14.90;91.60
70762;DHT22;58360;0.000;0.000;2023-04-23T15:21:15;14.90;91.60
70762;DHT22;58360;0.000;0.000;2023-04-23T15:23:41;14.90;91.10
70762;DHT22;58360;0.000;0.000;2023-04-23T15:26:07;14.70;91.60
70762;DHT22;58360;0.000;0.000;2023-04-23T15:28:33;14.80;91.10
70762;DHT22;58360;0.000;0.000;2023-04-23T15:30:58;14.80;91.20
70762;DHT22;58360;0.000;0.000;2023-04-23T15:33:24;14.70;91.30
70762;DHT22;58360;0.000;0.000;2023-04-23T15:35:50;14.80;91.20
70762;DHT22;58360;0.000;0.000;2023-04-23T15:38:17;15.00;90.50
70762;DHT22;58360;0.000;0.000;2023-04-23T15:40:43;15.10;90.70
70762;DHT22;58360;0.000;0.000;2023-04-23T15:43:12;15.00;91.10
70762;DHT22;58360;0.000;0.000;2023-04-23T15:45:38;15.00;91.40
70762;DHT22;58360;0.000;0.000;2023-04-23T15:48:04;15.10;91.30
70762;DHT22;58360;0.000;0.000;2023-04-23T15:50:30;15.20;91.00
70762;DHT22;58360;0.000;0.000;2023-04-23T15:52:55;15.20;90.80
70762;DHT22;58360;0.000;0.000;2023-04-23T15:55:23;15.10;91.00
70762;DHT22;58360;0.000;0.000;2023-04-23T15:57:50;15.20;90.50
70762;DHT22;58360;0.000;0.000;2023-04-23T16:00:15;15.10;90.70
70762;DHT22;58360;0.000;0.000;2023-04-23T16:02:41;15.00;91.20
70762;DHT22;58360;0.000;0.000;2023-04-23T16:05:07;14.90;91.20